createdAt,value
2023-02-09T00:01:00.202Z,-5.1
2023-02-09T00:02:16.502Z,-5
2023-02-09T00:03:32.784Z,-5.1
2023-02-09T00:04:49.081Z,-5
2023-02-09T00:06:04.395Z,-5.1
2023-02-09T00:07:20.691Z,-5.1
2023-02-09T00:08:36.985Z,-5.1
2023-02-09T00:09:53.282Z,-5.1
2023-02-09T00:11:09.584Z,-5.2
2023-02-09T00:12:25.882Z,-5.2
2023-02-09T00:13:42.171Z,-5.1
2023-02-09T00:14:58.462Z,-5.2
2023-02-09T00:16:14.764Z,-5.2
2023-02-09T00:17:31.061Z,-5.2
2023-02-09T00:18:47.360Z,-5.3
2023-02-09T00:20:03.646Z,-5.3
2023-02-09T00:21:19.935Z,-5.4
2023-02-09T00:22:35.256Z,-5.4
2023-02-09T00:23:51.554Z,-5.5
2023-02-09T00:25:07.856Z,-5.4
2023-02-09T00:26:24.153Z,-5.4
2023-02-09T00:27:40.440Z,-5.4
2023-02-09T00:28:56.730Z,-5.4
2023-02-09T00:30:13.040Z,-5.3
2023-02-09T00:31:29.334Z,-5.3
2023-02-09T00:32:45.633Z,-5.3
2023-02-09T00:34:01.916Z,-5.3
2023-02-09T00:35:18.211Z,-5.3
2023-02-09T00:36:34.524Z,-5.3
2023-02-09T00:37:50.807Z,-5.3
2023-02-09T00:39:06.114Z,-5.4
2023-02-09T00:40:22.425Z,-5.4
2023-02-09T00:41:38.723Z,-5.4
2023-02-09T00:42:55.006Z,-5.4
2023-02-09T00:44:11.297Z,-5.4
2023-02-09T00:45:27.609Z,-5.4
2023-02-09T00:46:43.891Z,-5.4
2023-02-09T00:48:00.202Z,-5.5
2023-02-09T00:49:16.489Z,-5.5
2023-02-09T00:50:32.793Z,-5.5
2023-02-09T00:51:49.089Z,-5.6
2023-02-09T00:53:05.383Z,-5.6
2023-02-09T00:54:21.665Z,-5.6
2023-02-09T00:55:36.976Z,-5.6
2023-02-09T00:56:53.276Z,-5.7
2023-02-09T00:58:09.578Z,-5.7
2023-02-09T00:59:25.877Z,-5.7
2023-02-09T01:00:42.164Z,-5.8
2023-02-09T01:01:58.460Z,-5.8
2023-02-09T01:03:13.774Z,-5.9
2023-02-09T01:04:29.085Z,-5.8
2023-02-09T01:05:44.418Z,-5.8
2023-02-09T01:06:59.726Z,-5.8
2023-02-09T01:08:16.018Z,-5.8
2023-02-09T01:09:32.322Z,-5.9
2023-02-09T01:10:48.603Z,-6
2023-02-09T01:12:04.919Z,-6.1
2023-02-09T01:13:21.206Z,-6.1
2023-02-09T01:14:37.481Z,-6.1
2023-02-09T01:15:53.800Z,-6.2
2023-02-09T01:17:10.094Z,-6.1
2023-02-09T01:18:26.381Z,-6.1
2023-02-09T01:19:42.675Z,-6.1
2023-02-09T01:20:58.970Z,-6
2023-02-09T01:22:15.259Z,-6
2023-02-09T01:23:30.571Z,-6
2023-02-09T01:24:46.885Z,-6
2023-02-09T01:26:03.168Z,-6
2023-02-09T01:27:19.471Z,-6.1
2023-02-09T01:28:35.772Z,-6.1
2023-02-09T01:29:52.064Z,-6.1
2023-02-09T01:31:08.353Z,-6.1
2023-02-09T01:32:24.656Z,-6.1
2023-02-09T01:33:39.964Z,-6.1
2023-02-09T01:34:55.277Z,-6.1
2023-02-09T01:36:11.575Z,-6.1
2023-02-09T01:37:27.868Z,-6.2
2023-02-09T01:38:44.159Z,-6.2
2023-02-09T01:40:00.470Z,-6.3
2023-02-09T01:41:15.786Z,-6.3
2023-02-09T01:42:31.085Z,-6.3
2023-02-09T01:43:47.395Z,-6.3
2023-02-09T01:45:03.672Z,-6.3
2023-02-09T01:46:19.972Z,-6.3
2023-02-09T01:47:36.282Z,-6.3
2023-02-09T01:48:52.563Z,-6.2
2023-02-09T01:50:08.861Z,-6.3
2023-02-09T01:51:25.167Z,-6.2
2023-02-09T01:52:40.481Z,-6.3
2023-02-09T01:53:56.783Z,-6.3
2023-02-09T01:55:13.068Z,-6.4
2023-02-09T01:56:29.364Z,-6.4
2023-02-09T01:57:45.667Z,-6.4
2023-02-09T01:59:01.959Z,-6.4
2023-02-09T02:00:18.253Z,-6.4
2023-02-09T02:01:34.562Z,-6.5
2023-02-09T02:02:50.841Z,-6.5
2023-02-09T02:04:07.150Z,-6.5
2023-02-09T02:05:23.439Z,-6.5
2023-02-09T02:06:39.740Z,-6.5
2023-02-09T02:07:56.027Z,-6.5
2023-02-09T02:09:11.335Z,-6.5
2023-02-09T02:10:27.649Z,-6.4
2023-02-09T02:11:43.947Z,-6.5
2023-02-09T02:13:00.241Z,-6.5
2023-02-09T02:14:16.519Z,-6.5
2023-02-09T02:15:32.829Z,-6.5
2023-02-09T02:16:49.130Z,-6.5
2023-02-09T02:18:05.414Z,-6.5
2023-02-09T02:19:21.707Z,-6.6
2023-02-09T02:20:38.015Z,-6.6
2023-02-09T02:21:54.298Z,-6.7
2023-02-09T02:23:10.595Z,-6.7
2023-02-09T02:24:26.895Z,-6.7
2023-02-09T02:25:42.214Z,-6.6
2023-02-09T02:26:58.515Z,-6.6
2023-02-09T02:28:14.797Z,-6.6
2023-02-09T02:29:31.105Z,-6.6
2023-02-09T02:30:47.000Z,-6.5
2023-02-09T02:32:03.693Z,-6.6
2023-02-09T02:33:19.976Z,-6.6
2023-02-09T02:34:36.290Z,-6.6
2023-02-09T02:35:52.567Z,-6.6
2023-02-09T02:37:08.880Z,-6.6
2023-02-09T02:38:25.152Z,-6.6
2023-02-09T02:39:41.469Z,-6.6
2023-02-09T02:40:57.761Z,-6.5
2023-02-09T02:42:13.069Z,-6.5
2023-02-09T02:43:29.360Z,-6.5
2023-02-09T02:44:45.673Z,-6.4
2023-02-09T02:46:01.962Z,-6.5
2023-02-09T02:47:18.245Z,-6.5
2023-02-09T02:48:34.548Z,-6.4
2023-02-09T02:49:50.848Z,-6.4
2023-02-09T02:51:07.146Z,-6.4
2023-02-09T02:52:23.438Z,-6.4
2023-02-09T02:53:39.727Z,-6.4
2023-02-09T02:54:56.020Z,-6.4
2023-02-09T02:56:12.337Z,-6.5
2023-02-09T02:57:28.619Z,-6.4
2023-02-09T02:58:43.934Z,-6.5
2023-02-09T03:00:00.226Z,-6.6
2023-02-09T03:01:16.517Z,-6.6
2023-02-09T03:02:32.812Z,-6.6
2023-02-09T03:03:49.125Z,-6.6
2023-02-09T03:05:05.421Z,-6.6
2023-02-09T03:06:21.715Z,-6.6
2023-02-09T03:07:37.997Z,-6.6
2023-02-09T03:08:54.292Z,-6.6
2023-02-09T03:10:10.608Z,-6.6
2023-02-09T03:11:26.893Z,-6.6
2023-02-09T03:12:43.197Z,-6.5
2023-02-09T03:15:15.779Z,-6.5
2023-02-09T03:16:31.085Z,-6.6
2023-02-09T03:17:47.380Z,-6.5
2023-02-09T03:19:03.681Z,-6.5
2023-02-09T03:20:19.980Z,-6.6
2023-02-09T03:21:36.270Z,-6.6
2023-02-09T03:22:52.582Z,-6.6
2023-02-09T03:24:08.873Z,-6.7
2023-02-09T03:25:25.169Z,-6.7
2023-02-09T03:26:41.468Z,-6.7
2023-02-09T03:29:14.053Z,-6.8
2023-02-09T03:30:30.356Z,-6.8
2023-02-09T03:31:46.631Z,-6.8
2023-02-09T03:33:01.956Z,-6.8
2023-02-09T03:34:18.251Z,-6.8
2023-02-09T03:35:34.547Z,-6.8
2023-02-09T03:36:50.838Z,-6.7
2023-02-09T03:38:07.150Z,-6.8
2023-02-09T03:39:23.436Z,-6.7
2023-02-09T03:40:39.723Z,-6.7
2023-02-09T03:41:56.037Z,-6.7
2023-02-09T03:43:12.332Z,-6.7
2023-02-09T03:44:28.619Z,-6.7
2023-02-09T03:45:44.920Z,-6.7
2023-02-09T03:47:01.200Z,-6.7
2023-02-09T03:48:17.501Z,-6.7
2023-02-09T03:49:32.822Z,-6.7
2023-02-09T03:50:48.131Z,-6.7
2023-02-09T03:52:03.451Z,-6.7
2023-02-09T03:53:18.762Z,-6.8
2023-02-09T03:54:34.063Z,-6.7
2023-02-09T03:55:50.363Z,-6.8
2023-02-09T03:57:06.663Z,-6.8
2023-02-09T03:58:22.959Z,-6.8
2023-02-09T03:59:39.266Z,-6.8
2023-02-09T04:00:55.556Z,-6.8
2023-02-09T04:02:11.845Z,-6.8
2023-02-09T04:03:28.147Z,-6.9
2023-02-09T04:04:44.452Z,-6.9
2023-02-09T04:06:00.738Z,-6.8
2023-02-09T04:07:17.033Z,-6.8
2023-02-09T04:08:33.337Z,-6.8
2023-02-09T04:09:49.612Z,-6.8
2023-02-09T04:11:04.949Z,-6.9
2023-02-09T04:12:21.228Z,-6.8
2023-02-09T04:13:37.532Z,-6.8
2023-02-09T04:14:53.836Z,-6.7
2023-02-09T04:16:10.117Z,-6.8
2023-02-09T04:17:26.421Z,-6.7
2023-02-09T04:18:42.725Z,-6.7
2023-02-09T04:19:59.017Z,-6.7
2023-02-09T04:21:15.305Z,-6.7
2023-02-09T04:22:31.599Z,-6.6
2023-02-09T04:23:47.896Z,-6.6
2023-02-09T04:25:04.186Z,-6.6
2023-02-09T04:26:20.497Z,-6.6
2023-02-09T04:27:35.801Z,-6.6
2023-02-09T04:28:52.095Z,-6.5
2023-02-09T04:31:24.689Z,-6.6
2023-02-09T04:32:40.976Z,-6.6
2023-02-09T04:33:57.272Z,-6.6
2023-02-09T04:35:13.577Z,-6.7
2023-02-09T04:36:29.881Z,-6.7
2023-02-09T04:37:46.177Z,-6.7
2023-02-09T04:39:02.458Z,-6.7
2023-02-09T04:40:18.764Z,-6.8
2023-02-09T04:41:35.058Z,-6.8
2023-02-09T04:42:51.360Z,-6.8
2023-02-09T04:44:06.660Z,-6.8
2023-02-09T04:45:22.953Z,-6.8
2023-02-09T04:46:39.260Z,-6.8
2023-02-09T04:47:55.565Z,-6.8
2023-02-09T04:49:11.841Z,-6.8
2023-02-09T04:51:44.447Z,-6.7
2023-02-09T04:53:00.750Z,-6.8
2023-02-09T04:54:17.039Z,-6.7
2023-02-09T04:55:33.329Z,-6.8
2023-02-09T04:56:49.633Z,-6.8
2023-02-09T04:58:05.916Z,-6.8
2023-02-09T04:59:22.218Z,-6.8
2023-02-09T05:00:37.521Z,-6.8
2023-02-09T05:01:53.823Z,-6.7
2023-02-09T05:03:10.104Z,-6.8
2023-02-09T05:04:26.416Z,-6.8
2023-02-09T05:05:42.711Z,-6.7
2023-02-09T05:06:59.012Z,-6.7
2023-02-09T05:08:15.311Z,-6.8
2023-02-09T05:09:31.598Z,-6.7
2023-02-09T05:10:47.891Z,-6.7
2023-02-09T05:12:04.187Z,-6.6
2023-02-09T05:13:20.488Z,-6.6
2023-02-09T05:14:36.788Z,-6.6
2023-02-09T05:17:09.379Z,-6.6
2023-02-09T05:18:24.696Z,-6.5
2023-02-09T05:19:40.985Z,-6.5
2023-02-09T05:20:57.283Z,-6.5
2023-02-09T05:22:13.569Z,-6.5
2023-02-09T05:23:29.871Z,-6.5
2023-02-09T05:24:46.161Z,-6.5
2023-02-09T05:26:02.460Z,-6.6
2023-02-09T05:27:18.754Z,-6.6
2023-02-09T05:28:35.067Z,-6.6
2023-02-09T05:29:51.343Z,-6.7
2023-02-09T05:31:07.642Z,-6.7
2023-02-09T05:32:23.946Z,-6.7
2023-02-09T05:33:40.240Z,-6.7
2023-02-09T05:34:55.554Z,-6.7
2023-02-09T05:36:11.857Z,-6.7
2023-02-09T05:37:28.145Z,-6.7
2023-02-09T05:38:44.448Z,-6.7
2023-02-09T05:40:00.730Z,-6.7
2023-02-09T05:41:17.028Z,-6.7
2023-02-09T05:42:33.333Z,-6.7
2023-02-09T05:43:49.618Z,-6.6
2023-02-09T05:45:05.928Z,-6.7
2023-02-09T05:46:22.219Z,-6.7
2023-02-09T05:47:38.508Z,-6.6
2023-02-09T05:48:54.811Z,-6.6
2023-02-09T05:50:11.099Z,-6.6
2023-02-09T05:51:26.425Z,-6.6
2023-02-09T05:52:42.713Z,-6.5
2023-02-09T05:53:58.946Z,-6.5
2023-02-09T05:55:15.254Z,-6.6
2023-02-09T05:56:31.540Z,-6.5
2023-02-09T05:57:47.798Z,-6.5
2023-02-09T05:59:04.040Z,-6.5
2023-02-09T06:00:20.335Z,-6.5
2023-02-09T06:01:36.634Z,-6.5
2023-02-09T06:02:52.888Z,-6.5
2023-02-09T06:04:09.122Z,-6.6
2023-02-09T06:05:25.378Z,-6.6
2023-02-09T06:06:41.623Z,-6.6
2023-02-09T06:07:56.869Z,-6.6
2023-02-09T06:09:13.109Z,-6.7
2023-02-09T06:10:29.352Z,-6.7
2023-02-09T06:11:45.603Z,-6.8
2023-02-09T06:13:01.835Z,-6.8
2023-02-09T06:14:18.086Z,-6.8
2023-02-09T06:15:34.325Z,-6.8
2023-02-09T06:16:50.577Z,-6.8
2023-02-09T06:18:06.818Z,-6.8
2023-02-09T06:19:23.045Z,-6.8
2023-02-09T06:20:39.304Z,-6.8
2023-02-09T06:21:55.541Z,-6.7
2023-02-09T06:23:11.778Z,-6.7
2023-02-09T06:24:27.040Z,-6.7
2023-02-09T06:25:43.288Z,-6.7
2023-02-09T06:26:59.522Z,-6.7
2023-02-09T06:28:15.763Z,-6.7
2023-02-09T06:29:32.003Z,-6.7
2023-02-09T06:30:48.241Z,-6.7
2023-02-09T06:32:04.483Z,-6.7
2023-02-09T06:33:20.741Z,-6.7
2023-02-09T06:34:36.986Z,-6.7
2023-02-09T06:35:53.218Z,-6.7
2023-02-09T06:37:09.466Z,-6.6
2023-02-09T06:38:24.733Z,-6.6
2023-02-09T06:39:39.987Z,-6.6
2023-02-09T06:40:56.235Z,-6.6
2023-02-09T06:42:12.475Z,-6.6
2023-02-09T06:43:28.707Z,-6.6
2023-02-09T06:44:44.953Z,-6.6
2023-02-09T06:46:00.215Z,-6.6
2023-02-09T06:47:15.470Z,-6.5
2023-02-09T06:48:31.714Z,-6.5
2023-02-09T06:49:47.937Z,-6.5
2023-02-09T06:51:04.199Z,-6.5
2023-02-09T06:52:20.430Z,-6.5
2023-02-09T06:53:36.672Z,-6.4
2023-02-09T06:54:52.922Z,-6.4
2023-02-09T06:56:09.160Z,-6.4
2023-02-09T06:57:25.405Z,-6.4
2023-02-09T06:58:41.645Z,-6.4
2023-02-09T06:59:57.885Z,-6.4
2023-02-09T07:01:14.134Z,-6.3
2023-02-09T07:02:30.379Z,-6.3
2023-02-09T07:03:45.638Z,-6.4
2023-02-09T07:05:01.877Z,-6.3
2023-02-09T07:06:18.131Z,-6.3
2023-02-09T07:07:34.366Z,-6.4
2023-02-09T07:08:50.597Z,-6.4
2023-02-09T07:10:06.854Z,-6.4
2023-02-09T07:11:23.082Z,-6.4
2023-02-09T07:12:39.322Z,-6.4
2023-02-09T07:13:55.571Z,-6.4
2023-02-09T07:15:11.803Z,-6.3
2023-02-09T07:16:28.048Z,-6.3
2023-02-09T07:17:44.301Z,-6.3
2023-02-09T07:19:00.534Z,-6.2
2023-02-09T07:20:15.791Z,-6.3
2023-02-09T07:21:32.040Z,-6.2
2023-02-09T07:22:48.274Z,-6.2
2023-02-09T07:24:04.527Z,-6.2
2023-02-09T07:25:20.764Z,-6.1
2023-02-09T07:26:36.998Z,-6.1
2023-02-09T07:27:53.254Z,-6.1
2023-02-09T07:29:09.501Z,-6
2023-02-09T07:30:25.731Z,-6
2023-02-09T07:31:41.967Z,-6
2023-02-09T07:32:58.226Z,-5.9
2023-02-09T07:34:14.469Z,-5.9
2023-02-09T07:35:30.695Z,-5.9
2023-02-09T07:36:45.965Z,-5.9
2023-02-09T07:38:02.205Z,-5.8
2023-02-09T07:39:18.450Z,-5.8
2023-02-09T07:40:34.694Z,-5.8
2023-02-09T07:41:50.928Z,-5.7
2023-02-09T07:43:07.162Z,-5.7
2023-02-09T07:44:23.419Z,-5.6
2023-02-09T07:45:39.652Z,-5.6
2023-02-09T07:46:55.894Z,-5.6
2023-02-09T07:48:12.128Z,-5.5
2023-02-09T07:49:28.381Z,-5.5
2023-02-09T07:50:44.624Z,-5.5
2023-02-09T07:52:00.861Z,-5.4
2023-02-09T07:53:16.121Z,-5.4
2023-02-09T07:54:32.371Z,-5.3
2023-02-09T07:55:48.613Z,-5.3
2023-02-09T07:57:04.838Z,-5.3
2023-02-09T07:58:21.080Z,-5.2
2023-02-09T07:59:37.323Z,-5.2
2023-02-09T08:00:53.566Z,-5.2
2023-02-09T08:02:09.822Z,-5.1
2023-02-09T08:03:26.059Z,-5.1
2023-02-09T08:04:42.291Z,-5.1
2023-02-09T08:05:58.531Z,-5
2023-02-09T08:07:14.771Z,-5
2023-02-09T08:08:31.022Z,-4.9
2023-02-09T08:09:46.283Z,-4.9
2023-02-09T08:11:02.521Z,-4.8
2023-02-09T08:12:18.754Z,-4.8
2023-02-09T08:13:35.000Z,-4.8
2023-02-09T08:14:51.238Z,-4.7
2023-02-09T08:16:07.480Z,-4.7
2023-02-09T08:17:23.739Z,-4.7
2023-02-09T08:19:56.205Z,-4.6
2023-02-09T08:21:12.445Z,-4.5
2023-02-09T08:22:28.706Z,-4.5
2023-02-09T08:23:44.947Z,-4.4
2023-02-09T08:25:01.177Z,-4.4
2023-02-09T08:26:16.432Z,-4.3
2023-02-09T08:27:32.681Z,-4.3
2023-02-09T08:28:48.910Z,-4.3
2023-02-09T08:30:05.171Z,-4.2
2023-02-09T08:31:21.401Z,-4.1
2023-02-09T08:32:37.646Z,-4.1
2023-02-09T08:35:10.129Z,-4
2023-02-09T08:36:26.356Z,-4
2023-02-09T08:37:42.607Z,-3.9
2023-02-09T08:38:58.855Z,-3.9
2023-02-09T08:40:15.092Z,-3.9
2023-02-09T08:41:31.335Z,-3.9
2023-02-09T08:42:46.591Z,-3.9
2023-02-09T08:44:02.838Z,-3.8
2023-02-09T08:45:19.077Z,-3.7
2023-02-09T08:46:35.312Z,-3.7
2023-02-09T08:47:51.565Z,-3.6
2023-02-09T08:49:07.808Z,-3.6
2023-02-09T08:50:24.052Z,-3.5
2023-02-09T08:51:40.279Z,-3.4
2023-02-09T08:52:56.524Z,-3.4
2023-02-09T08:54:12.764Z,-3.4
2023-02-09T08:55:29.019Z,-3.4
2023-02-09T08:56:45.261Z,-3.3
2023-02-09T08:58:01.496Z,-3.3
2023-02-09T08:59:16.756Z,-3.3
2023-02-09T09:01:49.229Z,-3.2
2023-02-09T09:03:05.469Z,-3.2
2023-02-09T09:04:21.718Z,-3.1
2023-02-09T09:05:37.958Z,-3
2023-02-09T09:06:54.196Z,-3
2023-02-09T09:08:10.434Z,-3
2023-02-09T09:09:26.688Z,-3
2023-02-09T09:10:42.934Z,-2.9
2023-02-09T09:11:59.160Z,-2.9
2023-02-09T09:13:15.405Z,-2.8
2023-02-09T09:14:31.661Z,-2.8
2023-02-09T09:15:46.905Z,-2.8
2023-02-09T09:17:03.140Z,-2.7
2023-02-09T09:19:35.638Z,-2.7
2023-02-09T09:20:51.883Z,-2.6
2023-02-09T09:22:08.124Z,-2.6
2023-02-09T09:23:24.364Z,-2.6
2023-02-09T09:24:40.593Z,-2.6
2023-02-09T09:25:56.843Z,-2.6
2023-02-09T09:27:13.074Z,-2.5
2023-02-09T09:28:29.321Z,-2.5
2023-02-09T09:29:45.574Z,-2.4
2023-02-09T09:31:01.797Z,-2.4
2023-02-09T09:32:17.064Z,-2.3
2023-02-09T09:33:33.307Z,-2.3
2023-02-09T09:34:49.554Z,-2.3
2023-02-09T09:36:05.781Z,-2.3
2023-02-09T09:37:22.033Z,-2.2
2023-02-09T09:38:38.281Z,-2.2
2023-02-09T09:39:54.502Z,-2.1
2023-02-09T09:41:10.762Z,-2.1
2023-02-09T09:42:26.999Z,-2
2023-02-09T09:43:43.237Z,-2
2023-02-09T09:44:59.474Z,-2
2023-02-09T09:47:31.967Z,-1.9
2023-02-09T09:48:47.221Z,-1.9
2023-02-09T09:50:03.459Z,-1.8
2023-02-09T09:51:19.701Z,-1.8
2023-02-09T09:52:35.946Z,-1.8
2023-02-09T09:53:52.185Z,-1.7
2023-02-09T09:55:08.423Z,-1.7
2023-02-09T09:56:24.672Z,-1.7
2023-02-09T09:57:40.911Z,-1.7
2023-02-09T09:58:57.159Z,-1.6
2023-02-09T10:00:13.398Z,-1.6
2023-02-09T10:01:29.637Z,-1.5
2023-02-09T10:02:45.863Z,-1.5
2023-02-09T10:04:02.112Z,-1.5
2023-02-09T10:05:17.373Z,-1.4
2023-02-09T10:06:33.603Z,-1.4
2023-02-09T10:07:49.850Z,-1.4
2023-02-09T10:09:06.092Z,-1.4
2023-02-09T10:10:22.343Z,-1.3
2023-02-09T10:11:38.577Z,-1.3
2023-02-09T10:12:54.811Z,-1.2
2023-02-09T10:14:11.058Z,-1.2
2023-02-09T10:15:27.297Z,-1.2
2023-02-09T10:16:43.536Z,-1.1
2023-02-09T10:17:59.785Z,-1.1
2023-02-09T10:19:16.031Z,-1.1
2023-02-09T10:20:32.270Z,-1
2023-02-09T10:21:47.522Z,-1
2023-02-09T10:23:02.795Z,-1
2023-02-09T10:24:19.023Z,-1
2023-02-09T10:25:35.269Z,-1
2023-02-09T10:26:51.506Z,-0.9
2023-02-09T10:28:07.755Z,-0.9
2023-02-09T10:29:23.989Z,-0.9
2023-02-09T10:30:40.231Z,-0.8
2023-02-09T10:31:56.485Z,-0.8
2023-02-09T10:33:12.707Z,-0.8
2023-02-09T10:34:28.956Z,-0.7
2023-02-09T10:35:45.198Z,-0.7
2023-02-09T10:37:01.445Z,-0.6
2023-02-09T10:38:17.681Z,-0.6
2023-02-09T10:39:32.933Z,-0.6
2023-02-09T10:40:49.182Z,-0.6
2023-02-09T10:42:05.432Z,-0.5
2023-02-09T10:43:21.664Z,-0.5
2023-02-09T10:44:37.912Z,-0.5
2023-02-09T10:45:54.152Z,-0.5
2023-02-09T10:47:10.377Z,-0.4
2023-02-09T10:48:26.631Z,-0.4
2023-02-09T10:49:42.878Z,-0.4
2023-02-09T10:52:15.351Z,-0.3
2023-02-09T10:53:31.586Z,-0.3
2023-02-09T10:54:47.000Z,-0.3
2023-02-09T10:56:03.000Z,-0.3
2023-02-09T10:57:19.322Z,-0.2
2023-02-09T10:58:35.566Z,-0.2
2023-02-09T10:59:51.817Z,-0.1
2023-02-09T11:01:08.047Z,-0.1
2023-02-09T11:02:24.298Z,-0.1
2023-02-09T11:03:40.548Z,-0.1
2023-02-09T11:04:56.778Z,0
2023-02-09T11:06:13.024Z,0
2023-02-09T11:07:29.270Z,0
2023-02-09T11:08:45.502Z,0.1
2023-02-09T11:10:01.741Z,0.1
2023-02-09T11:11:17.985Z,0.1
2023-02-09T11:12:33.249Z,0.2
2023-02-09T11:13:49.487Z,0.2
2023-02-09T11:15:05.719Z,0.2
2023-02-09T11:16:21.968Z,0.2
2023-02-09T11:17:38.212Z,0.2
2023-02-09T11:18:54.446Z,0.3
2023-02-09T11:20:10.686Z,0.3
2023-02-09T11:22:43.170Z,0.3
2023-02-09T11:23:59.408Z,0.3
2023-02-09T11:25:15.660Z,0.3
2023-02-09T11:26:31.903Z,0.4
2023-02-09T11:27:48.127Z,0.4
2023-02-09T11:29:03.398Z,0.4
2023-02-09T11:30:19.641Z,0.5
2023-02-09T11:31:35.872Z,0.5
2023-02-09T11:32:52.108Z,0.5
2023-02-09T11:34:08.351Z,0.6
2023-02-09T11:35:24.605Z,0.6
2023-02-09T11:36:40.835Z,0.6
2023-02-09T11:37:57.074Z,0.7
2023-02-09T11:39:13.330Z,0.7
2023-02-09T11:40:29.572Z,0.8
2023-02-09T11:41:45.809Z,0.8
2023-02-09T11:43:02.036Z,0.8
2023-02-09T11:45:34.532Z,0.8
2023-02-09T11:46:50.878Z,0.9
2023-02-09T11:48:07.134Z,0.9
2023-02-09T11:49:23.365Z,0.9
2023-02-09T11:50:39.620Z,0.9
2023-02-09T11:51:55.853Z,0.9
2023-02-09T11:53:12.092Z,1
2023-02-09T11:54:28.337Z,1
2023-02-09T11:55:44.573Z,1
2023-02-09T11:57:00.822Z,1.1
2023-02-09T11:58:17.054Z,1.1
2023-02-09T11:59:33.291Z,1.1
2023-02-09T12:00:49.546Z,1.1
2023-02-09T12:02:05.780Z,1.1
2023-02-09T12:03:21.039Z,1.2
2023-02-09T12:04:37.268Z,1.2
2023-02-09T12:05:53.523Z,1.2
2023-02-09T12:07:09.768Z,1.2
2023-02-09T12:08:26.005Z,1.2
2023-02-09T12:09:42.250Z,1.3
2023-02-09T12:10:58.477Z,1.3
2023-02-09T12:12:14.733Z,1.3
2023-02-09T12:13:30.962Z,1.3
2023-02-09T12:14:47.195Z,1.4
2023-02-09T12:16:03.455Z,1.4
2023-02-09T12:18:35.931Z,1.4
2023-02-09T12:19:52.163Z,1.4
2023-02-09T12:21:07.415Z,1.5
2023-02-09T12:22:23.674Z,1.5
2023-02-09T12:23:39.907Z,1.5
2023-02-09T12:24:56.150Z,1.5
2023-02-09T12:26:12.381Z,1.5
2023-02-09T12:27:28.619Z,1.5
2023-02-09T12:28:44.877Z,1.5
2023-02-09T12:30:01.103Z,1.5
2023-02-09T12:31:17.352Z,1.5
2023-02-09T12:32:33.586Z,1.5
2023-02-09T12:33:49.835Z,1.5
2023-02-09T12:35:06.078Z,1.6
2023-02-09T12:36:22.312Z,1.6
2023-02-09T12:37:38.673Z,1.6
2023-02-09T12:38:54.911Z,1.6
2023-02-09T12:40:11.166Z,1.6
2023-02-09T12:41:27.409Z,1.7
2023-02-09T12:42:43.632Z,1.7
2023-02-09T12:43:59.880Z,1.7
2023-02-09T12:46:32.358Z,1.7
2023-02-09T12:47:48.607Z,1.7
2023-02-09T12:49:04.848Z,1.8
2023-02-09T12:50:21.084Z,1.7
2023-02-09T12:51:37.316Z,1.7
2023-02-09T12:52:53.571Z,1.7
2023-02-09T12:54:09.920Z,1.7
2023-02-09T12:55:26.179Z,1.8
2023-02-09T12:56:42.418Z,1.8
2023-02-09T12:57:58.659Z,1.8
2023-02-09T12:59:14.899Z,1.8
2023-02-09T13:00:31.135Z,1.8
2023-02-09T13:01:47.371Z,1.8
2023-02-09T13:03:03.621Z,1.9
2023-02-09T13:04:19.852Z,1.9
2023-02-09T13:05:36.092Z,1.9
2023-02-09T13:06:52.346Z,2
2023-02-09T13:08:08.579Z,1.9
2023-02-09T13:09:24.828Z,1.9
2023-02-09T13:10:40.087Z,2
2023-02-09T13:11:56.323Z,2
2023-02-09T13:13:12.565Z,2
2023-02-09T13:14:28.804Z,2
2023-02-09T13:15:45.033Z,2
2023-02-09T13:17:01.285Z,2.1
2023-02-09T13:18:17.524Z,2
2023-02-09T13:19:33.762Z,2.1
2023-02-09T13:20:49.997Z,2.1
2023-02-09T13:22:06.250Z,2.1
2023-02-09T13:23:22.487Z,2.1
2023-02-09T13:24:38.731Z,2.1
2023-02-09T13:25:54.965Z,2.1
2023-02-09T13:27:10.224Z,2.1
2023-02-09T13:28:26.472Z,2.1
2023-02-09T13:29:42.700Z,2.1
2023-02-09T13:30:58.951Z,2.1
2023-02-09T13:32:15.193Z,2.1
2023-02-09T13:33:31.434Z,2.1
2023-02-09T13:34:47.675Z,2.1
2023-02-09T13:36:03.906Z,2.1
2023-02-09T13:37:20.153Z,2.1
2023-02-09T13:39:52.626Z,2.1
2023-02-09T13:41:08.881Z,2.1
2023-02-09T13:42:25.122Z,2.2
2023-02-09T13:43:40.376Z,2.2
2023-02-09T13:44:56.610Z,2.2
2023-02-09T13:46:12.847Z,2.2
2023-02-09T13:47:29.083Z,2.2
2023-02-09T13:48:45.331Z,2.2
2023-02-09T13:50:01.576Z,2.2
2023-02-09T13:51:17.821Z,2.2
2023-02-09T13:52:34.051Z,2.2
2023-02-09T13:55:06.543Z,2.3
2023-02-09T13:56:22.773Z,2.3
2023-02-09T13:57:39.022Z,2.3
2023-02-09T13:58:55.270Z,2.3
2023-02-09T14:00:10.519Z,2.4
2023-02-09T14:01:26.767Z,2.3
2023-02-09T14:02:42.994Z,2.4
2023-02-09T14:03:59.232Z,2.4
2023-02-09T14:05:15.473Z,2.4
2023-02-09T14:06:31.722Z,2.4
2023-02-09T14:07:47.967Z,2.4
2023-02-09T14:10:20.453Z,2.4
2023-02-09T14:11:36.682Z,2.4
2023-02-09T14:12:52.928Z,2.4
2023-02-09T14:14:09.168Z,2.4
2023-02-09T14:15:25.410Z,2.5
2023-02-09T14:17:56.914Z,2.4
2023-02-09T14:19:12.175Z,2.4
2023-02-09T14:20:27.429Z,2.5
2023-02-09T14:21:43.671Z,2.5
2023-02-09T14:22:59.901Z,2.5
2023-02-09T14:24:16.135Z,2.5
2023-02-09T14:25:32.378Z,2.5
2023-02-09T14:26:48.619Z,2.5
2023-02-09T14:28:04.860Z,2.6
2023-02-09T14:29:21.112Z,2.6
2023-02-09T14:30:37.347Z,2.6
2023-02-09T14:33:09.828Z,2.6
2023-02-09T14:34:26.063Z,2.7
2023-02-09T14:35:42.309Z,2.7
2023-02-09T14:36:58.678Z,2.7
2023-02-09T14:38:13.944Z,2.7
2023-02-09T14:39:30.178Z,2.7
2023-02-09T14:40:46.424Z,2.7
2023-02-09T14:42:02.664Z,2.7
2023-02-09T14:43:18.889Z,2.7
2023-02-09T14:44:35.142Z,2.7
2023-02-09T14:45:51.388Z,2.7
2023-02-09T14:47:07.772Z,2.8
2023-02-09T14:48:23.014Z,2.8
2023-02-09T14:49:39.257Z,2.8
2023-02-09T14:50:55.497Z,2.8
2023-02-09T14:52:11.744Z,2.8
2023-02-09T14:53:27.980Z,2.8
2023-02-09T14:56:00.454Z,2.8
2023-02-09T14:57:16.701Z,2.8
2023-02-09T14:58:32.951Z,2.7
2023-02-09T14:59:49.190Z,2.8
2023-02-09T15:01:05.428Z,2.8
2023-02-09T15:03:37.920Z,2.8
2023-02-09T15:04:53.182Z,2.8
2023-02-09T15:06:08.427Z,2.8
2023-02-09T15:07:24.664Z,2.8
2023-02-09T15:08:40.901Z,2.8
2023-02-09T15:11:13.393Z,2.8
2023-02-09T15:12:29.636Z,2.8
2023-02-09T15:13:45.862Z,2.8
2023-02-09T15:15:02.106Z,2.8
2023-02-09T15:16:18.346Z,2.7
2023-02-09T15:17:34.595Z,2.7
2023-02-09T15:18:50.837Z,2.7
2023-02-09T15:20:07.082Z,2.7
2023-02-09T15:21:23.323Z,2.6
2023-02-09T15:22:38.562Z,2.6
2023-02-09T15:23:54.811Z,2.6
2023-02-09T15:25:11.062Z,2.6
2023-02-09T15:26:27.301Z,2.5
2023-02-09T15:27:43.533Z,2.5
2023-02-09T15:28:59.780Z,2.5
2023-02-09T15:30:16.020Z,2.4
2023-02-09T15:31:32.268Z,2.4
2023-02-09T15:34:03.770Z,2.3
2023-02-09T15:35:19.015Z,2.3
2023-02-09T15:36:35.264Z,2.2
2023-02-09T15:37:50.530Z,2.2
2023-02-09T15:39:05.784Z,2.2
2023-02-09T15:40:22.014Z,2.1
2023-02-09T15:41:38.253Z,2.1
2023-02-09T15:42:54.501Z,2.1
2023-02-09T15:44:10.742Z,2
2023-02-09T15:45:26.988Z,2
2023-02-09T15:46:43.232Z,1.9
2023-02-09T15:47:59.455Z,1.9
2023-02-09T15:49:15.713Z,1.9
2023-02-09T15:50:31.941Z,1.9
2023-02-09T15:51:48.187Z,1.8
2023-02-09T15:53:04.436Z,1.7
2023-02-09T15:54:20.662Z,1.7
2023-02-09T15:55:35.935Z,1.7
2023-02-09T15:56:52.173Z,1.7
2023-02-09T15:58:08.408Z,1.7
2023-02-09T15:59:24.652Z,1.7
2023-02-09T16:00:40.886Z,1.6
2023-02-09T16:01:57.134Z,1.6
2023-02-09T16:03:13.377Z,1.5
2023-02-09T16:04:29.622Z,1.5
2023-02-09T16:05:45.854Z,1.5
2023-02-09T16:07:02.084Z,1.4
2023-02-09T16:08:18.333Z,1.4
2023-02-09T16:09:34.576Z,1.4
2023-02-09T16:10:50.826Z,1.4
2023-02-09T16:12:06.083Z,1.3
2023-02-09T16:13:22.320Z,1.3
2023-02-09T16:14:38.551Z,1.2
2023-02-09T16:15:54.805Z,1.1
2023-02-09T16:17:11.037Z,1.1
2023-02-09T16:18:27.270Z,1.1
2023-02-09T16:19:43.518Z,1
2023-02-09T16:20:59.756Z,1
2023-02-09T16:22:16.005Z,1
2023-02-09T16:23:32.248Z,1
2023-02-09T16:24:48.478Z,0.9
2023-02-09T16:26:04.731Z,0.8
2023-02-09T16:27:20.967Z,0.8
2023-02-09T16:28:36.226Z,0.8
2023-02-09T16:29:52.464Z,0.7
2023-02-09T16:31:08.705Z,0.7
2023-02-09T16:32:24.950Z,0.6
2023-02-09T16:33:41.177Z,0.6
2023-02-09T16:34:57.434Z,0.6
2023-02-09T16:36:13.662Z,0.5
2023-02-09T16:37:29.900Z,0.5
2023-02-09T16:38:46.155Z,0.5
2023-02-09T16:40:02.392Z,0.5
2023-02-09T16:42:34.877Z,0.4
2023-02-09T16:43:51.106Z,0.4
2023-02-09T16:45:06.373Z,0.4
2023-02-09T16:46:22.657Z,0.4
2023-02-09T16:47:38.970Z,0.4
2023-02-09T16:50:11.559Z,0.3
2023-02-09T16:51:27.852Z,0.3
2023-02-09T16:52:44.140Z,0.3
2023-02-09T16:54:00.434Z,0.3
2023-02-09T16:55:16.734Z,0.2
2023-02-09T16:56:33.036Z,0.2
2023-02-09T16:57:49.322Z,0.2
2023-02-09T16:59:05.625Z,0.1
2023-02-09T17:00:21.917Z,0.1
2023-02-09T17:01:38.332Z,0.1
2023-02-09T17:02:54.633Z,0
2023-02-09T17:04:10.915Z,0
2023-02-09T17:05:27.212Z,0
2023-02-09T17:06:43.502Z,0
2023-02-09T17:07:59.807Z,0
2023-02-09T17:09:16.097Z,-0.1
2023-02-09T17:10:32.394Z,-0.1
2023-02-09T17:11:48.696Z,-0.1
2023-02-09T17:13:04.973Z,-0.1
2023-02-09T17:14:21.245Z,-0.1
2023-02-09T17:15:37.532Z,-0.2
2023-02-09T17:16:53.820Z,-0.2
2023-02-09T17:18:09.146Z,-0.3
2023-02-09T17:19:25.437Z,-0.4
2023-02-09T17:20:41.738Z,-0.3
2023-02-09T17:21:58.024Z,-0.4
2023-02-09T17:23:14.316Z,-0.4
2023-02-09T17:24:30.612Z,-0.4
2023-02-09T17:25:46.912Z,-0.4
2023-02-09T17:27:03.195Z,-0.4
2023-02-09T17:28:19.502Z,-0.4
2023-02-09T17:29:35.803Z,-0.4
2023-02-09T17:30:52.099Z,-0.5
2023-02-09T17:32:08.390Z,-0.5
2023-02-09T17:33:24.670Z,-0.5
2023-02-09T17:34:41.100Z,-0.5
2023-02-09T17:35:57.400Z,-0.5
2023-02-09T17:37:13.678Z,-0.5
2023-02-09T17:38:29.980Z,-0.4
2023-02-09T17:41:02.573Z,-0.5
2023-02-09T17:42:18.865Z,-0.5
2023-02-09T17:43:35.161Z,-0.4